Stations météo

réclame
Mon MeteoGroup
San Vicente, Espagne (8017): Température de l'air & dewpoint: 12.01.2019 13:00:00 - 18.01.2019 13:00:00 (CET)San Vicente, Espagne (8017): Vitesse du vent & gusts: 12.01.2019 13:00:00 - 18.01.2019 13:00:00 (CET)San Vicente, Espagne (8017): Direction du vent: 12.01.2019 13:00:00 - 18.01.2019 13:00:00 (CET)San Vicente, Espagne (8017): reduced air pressure: 12.01.2019 13:00:00 - 18.01.2019 13:00:00 (CET)San Vicente, Espagne (8017): Quantités de précipitations: 12.01.2019 13:00:00 - 18.01.2019 13:00:00 (CET)
Date & Time tt [°C] td [°C] ff [km/h] ff [knt] fx [km/h] fx [knt] dd ppp [hPa] rr [mm]
18.01.2019 13:00:00 - - - - - - - - -
18.01.2019 12:00:00 7,1 3,9 9 5 14 8 SSW 1019,7 0,0
18.01.2019 11:00:00 6,3 4,1 8 4 14 7 SSW 1019,8 0,0
18.01.2019 10:00:00 5,5 3,6 10 5 16 8 SSW 1019,7 0,0
18.01.2019 09:00:00 5,3 3,4 10 5 15 8 S 1019,7 0,0
18.01.2019 08:00:00 5,1 3,0 10 5 16 9 SSW 1019,5 0,0
18.01.2019 07:00:00 5,0 3,2 10 5 15 8 SSW 1019,6 -
18.01.2019 06:00:00 5,3 3,2 9 5 18 10 SSW 1020,4 0,0
18.01.2019 05:00:00 5,0 3,4 10 6 16 8 SSW 1020,8 0,0
18.01.2019 04:00:00 5,2 3,2 9 5 16 9 S 1021,3 0,0
18.01.2019 03:00:00 6,2 3,9 6 3 13 7 SW 1021,5 0,0
18.01.2019 02:00:00 6,3 4,3 8 4 15 8 SSW 1021,9 0,0
18.01.2019 01:00:00 6,3 4,3 5 3 13 7 SW 1022,6 -
18.01.2019 00:00:00 6,3 4,3 9 5 13 7 SSW 1022,7 0,0
17.01.2019 23:00:00 6,8 4,8 4 2 13 7 SSW 1022,6 0,0
17.01.2019 22:00:00 6,8 5,0 2 1 14 8 SSW 1022,5 0,0
17.01.2019 21:00:00 7,0 5,3 3 1 19 10 SSW 1022,6 0,0
17.01.2019 20:00:00 7,4 5,8 4 2 24 13 WSW 1022,4 0,1
17.01.2019 19:00:00 7,6 5,6 10 5 35 19 W 1022,5 -
17.01.2019 18:00:00 8,2 6,4 18 10 35 19 WNW 1021,9 0,5
17.01.2019 17:00:00 8,0 5,5 14 8 40 22 W 1021,8 0,5
17.01.2019 16:00:00 9,4 6,7 28 15 41 22 WNW 1021,3 0,0
17.01.2019 15:00:00 10,6 5,8 21 12 33 18 WNW 1020,9 0,0
17.01.2019 14:00:00 10,1 5,6 19 10 40 21 WNW 1021,3 0,0
17.01.2019 13:00:00 10,4 5,8 23 12 39 21 WNW 1021,6 -
17.01.2019 12:00:00 9,7 5,3 17 9 29 16 W 1022,1 0,0
17.01.2019 11:00:00 9,2 7,1 2 1 19 10 SSW 1022,1 0,5
17.01.2019 10:00:00 8,0 5,9 1 1 30 16 WSW 1021,5 0,0
17.01.2019 09:00:00 7,3 5,5 7 4 34 18 SSW 1020,9 0,3
17.01.2019 08:00:00 7,6 5,9 21 11 40 21 WNW 1020,7 0,5
17.01.2019 07:00:00 7,8 5,8 17 9 50 27 W 1020,0 -
17.01.2019 06:00:00 7,6 6,1 3 1 15 8 SW 1019,6 0,0
17.01.2019 05:00:00 7,6 6,1 3 2 24 13 SSW 1019,3 0,1
17.01.2019 04:00:00 8,0 6,7 13 7 36 19 W 1019,4 0,6
17.01.2019 03:00:00 8,3 7,0 4 2 19 11 WSW 1019,2 2,1
17.01.2019 02:00:00 8,9 7,6 4 2 26 14 WSW 1018,8 1,2
17.01.2019 01:00:00 9,2 7,8 18 10 35 19 W 1018,7 -
17.01.2019 00:00:00 9,6 8,3 22 12 42 23 W 1018,2 2,4
16.01.2019 23:00:00 10,5 8,9 24 13 39 21 WNW 1017,6 0,1
16.01.2019 22:00:00 10,2 8,5 4 2 15 8 WSW 1017,4 0,0
16.01.2019 21:00:00 10,1 8,4 3 2 19 11 SW 1017,3 0,0
16.01.2019 20:00:00 10,9 9,2 13 7 21 12 W 1017,0 0,0
16.01.2019 19:00:00 10,9 8,8 5 3 13 7 W 1016,7 -
16.01.2019 18:00:00 11,3 8,7 4 2 9 5 SW 1016,1 0,0
16.01.2019 17:00:00 11,8 8,7 6 3 11 6 W 1015,9 0,0
16.01.2019 16:00:00 11,9 8,1 9 5 20 11 WNW 1015,8 0,0
16.01.2019 15:00:00 12,8 6,1 10 5 19 10 NW 1015,5 0,0
16.01.2019 14:00:00 14,3 7,1 3 2 12 6 SSW 1015,8 0,0
16.01.2019 13:00:00 11,3 7,8 6 3 14 8 SSW 1016,3 -
16.01.2019 12:00:00 8,6 5,5 7 4 16 9 SSW 1017,3 0,0
16.01.2019 11:00:00 5,3 3,2 12 7 35 19 SSW 1017,6 0,0
16.01.2019 10:00:00 4,1 2,3 13 7 16 9 SSW 1017,3 0,0
16.01.2019 09:00:00 3,5 1,7 11 6 17 9 SSW 1016,9 0,0
16.01.2019 08:00:00 2,9 0,9 14 7 17 9 SSW 1016,7 0,0
16.01.2019 07:00:00 2,7 1,3 11 6 17 9 SSW 1016,2 -
16.01.2019 06:00:00 2,9 1,5 12 7 18 10 SW 1016,2 0,0
16.01.2019 05:00:00 2,6 1,3 14 7 17 9 SSW 1016,3 0,0
16.01.2019 04:00:00 2,7 1,3 14 7 16 9 SSW 1016,6 0,0
16.01.2019 03:00:00 2,9 1,5 12 7 16 9 SSW 1016,9 0,0
16.01.2019 02:00:00 3,2 2,1 12 6 16 9 SSW 1017,3 0,0
16.01.2019 01:00:00 3,4 2,1 11 6 16 9 SSW 1017,8 -
16.01.2019 00:00:00 3,8 2,5 11 6 16 9 SSW 1018,2 0,0
15.01.2019 23:00:00 4,4 3,0 11 6 17 9 SSW 1018,5 0,0
15.01.2019 22:00:00 4,9 3,6 11 6 14 8 SW 1018,5 0,0
15.01.2019 21:00:00 5,9 4,5 10 6 13 7 SSW 1018,8 0,0
15.01.2019 20:00:00 7,3 5,8 9 5 11 6 SW 1019,2 0,0
15.01.2019 19:00:00 8,3 6,5 6 3 9 5 S 1019,2 -
15.01.2019 18:00:00 9,6 7,1 3 2 12 7 ESE 1019,2 0,0
15.01.2019 17:00:00 10,2 7,4 9 5 18 10 ENE 1019,3 0,0
15.01.2019 16:00:00 10,4 7,4 12 7 20 11 ENE 1019,3 0,0
15.01.2019 15:00:00 11,2 7,6 12 6 19 10 ENE 1019,6 0,0
15.01.2019 14:00:00 11,3 7,4 7 4 21 11 ENE 1020,4 0,0
15.01.2019 13:00:00 10,6 6,7 15 8 22 12 ENE 1021,5 -
15.01.2019 12:00:00 10,7 7,0 5 3 12 7 E 1022,6 0,0
15.01.2019 11:00:00 6,8 5,0 10 5 16 9 SSW 1023,0 0,0
15.01.2019 10:00:00 3,7 2,3 14 7 17 9 SSW 1023,0 0,0
15.01.2019 09:00:00 2,7 1,3 14 7 19 10 SSW 1022,9 0,0
15.01.2019 08:00:00 2,9 1,5 16 9 20 11 SSW 1022,9 0,0
15.01.2019 07:00:00 3,3 1,9 14 8 17 9 SSW 1023,2 -
15.01.2019 06:00:00 3,5 2,1 13 7 17 9 SSW 1023,5 0,0
15.01.2019 05:00:00 4,1 2,7 14 7 16 9 SSW 1024,1 0,0
15.01.2019 04:00:00 5,0 3,4 12 6 14 8 SSW 1024,6 0,0
15.01.2019 03:00:00 5,4 3,9 7 4 18 10 SSW 1025,0 0,0
15.01.2019 02:00:00 6,0 4,5 14 8 18 10 SSW 1025,2 0,0
15.01.2019 01:00:00 5,3 3,9 14 7 18 10 SSW 1025,9 -
15.01.2019 00:00:00 5,2 3,8 14 7 18 10 SSW 1026,1 0,0
14.01.2019 23:00:00 5,4 4,1 13 7 16 9 SSW 1026,3 0,0
14.01.2019 22:00:00 5,8 4,5 13 7 16 9 SSW 1026,3 0,0
14.01.2019 21:00:00 6,8 5,5 11 6 14 7 SSW 1026,4 0,0
14.01.2019 20:00:00 8,5 7,0 6 3 10 5 SSW 1026,5 0,0
14.01.2019 19:00:00 9,3 7,7 6 3 8 4 S 1026,6 -
14.01.2019 18:00:00 10,3 7,8 0 0 9 5 N 1026,6 0,0
14.01.2019 17:00:00 11,1 8,7 7 4 10 6 NW 1026,7 0,0
14.01.2019 16:00:00 11,7 8,8 3 2 10 6 WNW 1026,9 0,0
14.01.2019 15:00:00 11,4 8,7 4 2 15 8 W 1027,0 0,0
14.01.2019 14:00:00 11,4 8,8 10 5 21 11 NW 1027,2 0,0
14.01.2019 13:00:00 - - - - - - - - -
14.01.2019 12:00:00 11,1 6,2 3 2 13 7 WSW 1028,6 0,0
14.01.2019 11:00:00 10,8 6,4 1 0 15 8 ESE 1028,7 0,0
14.01.2019 10:00:00 9,7 5,9 2 1 19 10 SW 1028,4 0,0
14.01.2019 09:00:00 9,2 5,3 4 2 14 7 SW 1028,1 0,0
14.01.2019 08:00:00 9,0 5,1 2 1 14 8 SSW 1027,7 0,0
14.01.2019 07:00:00 9,0 5,0 3 2 15 8 SW 1027,7 -
14.01.2019 06:00:00 8,9 5,1 3 2 19 11 SW 1027,8 0,0
14.01.2019 05:00:00 8,9 5,1 6 3 19 10 SW 1028,2 0,0
14.01.2019 04:00:00 9,0 5,3 3 2 14 8 SW 1028,3 0,0
14.01.2019 03:00:00 9,3 6,2 5 3 13 7 SW 1028,8 0,0
14.01.2019 02:00:00 9,3 6,5 4 2 13 7 SW 1029,1 0,0
14.01.2019 01:00:00 9,3 6,7 5 3 13 7 SSW 1029,5 -
14.01.2019 00:00:00 9,3 7,1 4 2 12 6 SW 1030,0 0,0
13.01.2019 23:00:00 9,3 7,3 3 2 11 6 SW 1030,0 0,0
13.01.2019 22:00:00 9,5 7,6 3 2 12 7 SW 1029,8 0,0
13.01.2019 21:00:00 9,4 7,6 3 2 11 6 SW 1029,9 0,0
13.01.2019 20:00:00 9,1 7,4 4 2 15 8 SSW 1029,9 0,0
13.01.2019 19:00:00 9,1 7,3 6 3 17 9 SW 1030,1 -
13.01.2019 18:00:00 10,3 7,7 12 6 17 9 WNW 1029,9 0,0
13.01.2019 17:00:00 10,6 7,4 13 7 18 10 NW 1029,7 0,0
13.01.2019 16:00:00 11,6 7,6 10 5 14 8 WNW 1030,2 0,0
13.01.2019 15:00:00 12,1 6,5 3 2 11 6 NNW 1030,7 0,0
13.01.2019 14:00:00 12,7 5,6 4 2 12 7 W 1031,0 0,0
13.01.2019 13:00:00 10,9 5,0 4 2 13 7 SW 1032,1 -
13.01.2019 12:00:00 10,4 4,5 2 1 15 8 SSW 1032,9 0,0
13.01.2019 11:00:00 8,9 3,6 4 2 19 10 SW 1033,2 0,0
13.01.2019 10:00:00 8,3 3,4 5 3 22 12 SSW 1032,9 0,0
13.01.2019 09:00:00 7,3 3,0 6 3 18 10 SW 1032,7 0,0
13.01.2019 08:00:00 7,3 3,0 6 3 18 10 SSW 1032,6 0,0
13.01.2019 07:00:00 7,8 3,6 6 3 16 8 SSW 1032,7 -
13.01.2019 06:00:00 7,9 4,3 5 3 13 7 SSW 1032,9 0,0
13.01.2019 05:00:00 8,1 5,0 4 2 13 7 SW 1033,4 0,0
13.01.2019 04:00:00 8,6 5,9 3 2 12 7 SW 1033,4 0,0
13.01.2019 03:00:00 8,5 5,9 3 2 10 6 SW 1033,2 0,0
13.01.2019 02:00:00 8,9 6,4 3 2 11 6 SW 1033,6 0,0
13.01.2019 01:00:00 8,8 6,4 3 2 16 8 SW 1034,3 -
13.01.2019 00:00:00 9,0 6,8 6 3 14 7 W 1034,7 0,0
12.01.2019 23:00:00 8,9 6,8 3 1 9 5 SW 1034,8 0,1
12.01.2019 22:00:00 9,1 6,8 5 3 18 10 WSW 1034,5 0,0
12.01.2019 21:00:00 9,4 7,0 4 2 16 9 W 1034,7 0,0
12.01.2019 20:00:00 10,1 7,0 11 6 22 12 NW 1034,6 0,0
12.01.2019 19:00:00 9,9 6,8 13 7 19 11 NW 1034,2 -
12.01.2019 18:00:00 9,6 6,1 7 4 13 7 W 1033,8 0,0
12.01.2019 17:00:00 9,9 6,8 3 1 15 8 WSW 1033,8 0,0
12.01.2019 16:00:00 10,0 6,7 6 4 22 12 W 1033,8 0,0
12.01.2019 15:00:00 9,9 7,6 16 9 30 16 NW 1033,9 0,0
12.01.2019 14:00:00 9,7 7,4 13 7 19 11 WNW 1033,8 0,0
12.01.2019 13:00:00 9,6 7,4 7 4 17 9 W 1034,2 -

tt = Température de l'air
td = dewpoint
ff = Vitesse du vent
fx = gusts
dd = Direction du vent
ppp = reduced air pressure
rr = Quantités de précipitations

stations d'obs. à proximité